Evergreen, Montana
Current Conditions -  °F | °C
As of 10:55 PM on Sunday 21 Dec 2014 (Local Time) from KGPI Reporting Station
Scattered Clouds Scattered Clouds  
Wind Chill: 28°   Ceiling: Unl
Heat Index: 34°   Visibility: 10mi
Dew Point: 28°   Wind: 7mph
Humidity: 79%   Direction: 180°S
Pressure: 29.82"   Gusts: NA
Location:  48.1017°N, 113.751°W
Report Text: KGPI 220555Z 18006KT 10SM SCT060 01/M02 A2982 RMK AO2 SLP115 T00111022 10050 20006 51012 $
Loading
Personal Weather Stations






























Interactive Weather Map New forecast layout! Learn more

10-Day Weather Forecast

Advertisements
Track Severe Weather on mobile